createdAt,value
2018-04-24T00:01:22.309Z,72.90
2018-04-24T00:03:50.736Z,72.90
2018-04-24T00:06:19.182Z,73.90
2018-04-24T00:08:47.614Z,73.40
2018-04-24T00:11:16.077Z,75.30
2018-04-24T00:13:44.509Z,74.70
2018-04-24T00:16:12.934Z,74.90
2018-04-24T00:18:41.357Z,74.80
2018-04-24T00:21:09.791Z,74.60
2018-04-24T00:23:38.285Z,75.00
2018-04-24T00:26:06.872Z,77.10
2018-04-24T00:28:35.434Z,75.90
2018-04-24T00:31:03.636Z,75.90
2018-04-24T00:33:32.843Z,75.60
2018-04-24T00:36:02.026Z,74.70
2018-04-24T00:38:31.234Z,74.70
2018-04-24T00:41:00.428Z,75.00
2018-04-24T00:43:29.633Z,75.40
2018-04-24T00:45:58.087Z,75.40
2018-04-24T00:48:26.531Z,76.10
2018-04-24T00:50:54.957Z,75.70
2018-04-24T00:53:35.357Z,75.20
2018-04-24T00:56:03.908Z,75.20
2018-04-24T00:58:32.401Z,74.70
2018-04-24T01:01:00.831Z,75.60
2018-04-24T01:03:30.234Z,75.80
2018-04-24T01:05:58.674Z,75.40
2018-04-24T01:08:27.125Z,75.40
2018-04-24T01:10:55.567Z,75.50
2018-04-24T01:13:24.938Z,75.20
2018-04-24T01:15:53.377Z,74.90
2018-04-24T01:18:22.233Z,74.60
2018-04-24T01:20:50.677Z,74.60
2018-04-24T01:23:20.117Z,74.60
2018-04-24T01:25:48.318Z,75.00
2018-04-24T01:28:17.755Z,75.80
2018-04-24T01:30:45.843Z,75.80
2018-04-24T01:33:14.274Z,75.10
2018-04-24T01:35:42.719Z,75.40
2018-04-24T01:38:11.146Z,76.10
2018-04-24T01:40:39.600Z,75.50
2018-04-24T01:43:08.996Z,76.10
2018-04-24T01:45:38.404Z,76.60
2018-04-24T01:48:08.308Z,76.30
2018-04-24T01:50:38.064Z,76.10
2018-04-24T01:53:06.508Z,76.10
2018-04-24T01:55:34.946Z,76.10
2018-04-24T01:58:03.387Z,75.90
2018-04-24T02:00:31.819Z,75.50
2018-04-24T02:03:00.269Z,76.20
2018-04-24T02:05:28.712Z,75.90
2018-04-24T02:07:57.196Z,75.40
2018-04-24T02:10:25.404Z,76.80
2018-04-24T02:12:53.829Z,76.60
2018-04-24T02:15:23.125Z,76.30
2018-04-24T02:17:52.319Z,76.60
2018-04-24T02:20:21.526Z,76.90
2018-04-24T02:22:50.733Z,76.90
2018-04-24T02:25:19.164Z,76.90
2018-04-24T02:27:47.613Z,76.40
2018-04-24T02:30:16.049Z,76.60
2018-04-24T02:32:45.019Z,75.60
2018-04-24T02:35:13.450Z,75.60
2018-04-24T02:37:41.897Z,75.50
2018-04-24T02:40:11.103Z,76.00
2018-04-24T02:42:40.311Z,76.00
2018-04-24T02:45:09.713Z,76.00
2018-04-24T02:47:38.857Z,76.40
2018-04-24T02:50:07.493Z,76.10
2018-04-24T02:52:36.240Z,76.20
2018-04-24T02:55:04.345Z,76.50
2018-04-24T02:57:32.781Z,76.70
2018-04-24T03:00:01.226Z,76.40
2018-04-24T03:02:29.661Z,75.70
2018-04-24T03:04:58.884Z,76.80
2018-04-24T03:07:27.636Z,76.80
2018-04-24T03:09:56.830Z,77.30
2018-04-24T03:12:26.044Z,77.70
2018-04-24T03:14:56.270Z,77.90
2018-04-24T03:17:25.472Z,78.80
2018-04-24T03:19:53.900Z,78.10
2018-04-24T03:22:22.360Z,78.80
2018-04-24T03:24:50.788Z,79.20
2018-04-24T03:27:19.989Z,78.80
2018-04-24T03:29:49.204Z,79.30
2018-04-24T03:32:17.900Z,79.20
2018-04-24T03:34:46.344Z,79.50
2018-04-24T03:37:15.537Z,79.40
2018-04-24T03:39:44.758Z,79.60
2018-04-24T03:42:13.184Z,79.50
2018-04-24T03:44:42.384Z,79.20
2018-04-24T03:47:10.831Z,79.20
2018-04-24T03:49:39.257Z,80.30
2018-04-24T03:52:07.705Z,80.80
2018-04-24T03:54:36.207Z,82.60
2018-04-24T03:57:04.639Z,82.10
2018-04-24T03:59:33.073Z,81.50
2018-04-24T04:02:01.583Z,82.10
2018-04-24T04:04:30.153Z,82.10
2018-04-24T04:06:59.544Z,83.50
2018-04-24T04:09:28.748Z,82.30
2018-04-24T04:11:57.943Z,80.80
2018-04-24T04:14:27.143Z,81.20
2018-04-24T04:16:55.665Z,80.60
2018-04-24T04:19:35.418Z,80.50
2018-04-24T04:22:16.631Z,81.10
2018-04-24T04:24:45.973Z,82.40
2018-04-24T04:27:14.397Z,82.40
2018-04-24T04:29:42.849Z,81.50
2018-04-24T04:32:11.270Z,81.20
2018-04-24T04:34:40.471Z,84.70
2018-04-24T04:37:09.452Z,84.10
2018-04-24T04:39:37.891Z,84.00
2018-04-24T04:42:06.673Z,82.60
2018-04-24T04:44:35.094Z,83.80
2018-04-24T04:47:03.533Z,84.10
2018-04-24T04:49:31.965Z,84.20
2018-04-24T04:52:01.173Z,82.90
2018-04-24T04:54:29.606Z,82.90
2018-04-24T04:56:58.189Z,82.80
2018-04-24T04:59:26.626Z,83.40
2018-04-24T05:01:55.093Z,83.20
2018-04-24T05:04:23.535Z,82.10
2018-04-24T05:06:51.629Z,83.90
2018-04-24T05:09:20.845Z,82.80
2018-04-24T05:11:49.279Z,82.80
2018-04-24T05:14:17.711Z,82.60
2018-04-24T05:16:46.144Z,84.20
2018-04-24T05:19:14.597Z,82.80
2018-04-24T05:21:43.249Z,84.90
2018-04-24T05:24:12.682Z,82.50
2018-04-24T05:26:41.295Z,83.60
2018-04-24T05:29:13.121Z,82.60
2018-04-24T05:31:43.977Z,81.60
2018-04-24T05:34:12.682Z,81.60
2018-04-24T05:36:41.292Z,81.80
2018-04-24T05:39:09.718Z,80.90
2018-04-24T05:41:38.872Z,81.10
2018-04-24T05:44:07.974Z,80.40
2018-04-24T05:46:37.062Z,79.80
2018-04-24T05:49:05.505Z,80.50
2018-04-24T05:51:34.709Z,78.60
2018-04-24T05:54:03.155Z,78.60
2018-04-24T05:56:31.582Z,77.70
2018-04-24T05:59:00.033Z,77.70
2018-04-24T06:01:29.233Z,78.80
2018-04-24T06:03:58.459Z,76.70
2018-04-24T06:06:26.888Z,76.80
2018-04-24T06:08:55.343Z,76.50
2018-04-24T06:11:23.777Z,78.10
2018-04-24T06:13:52.196Z,76.70
2018-04-24T06:16:20.636Z,77.60
2018-04-24T06:18:49.083Z,77.70
2018-04-24T06:21:17.545Z,76.70
2018-04-24T06:23:45.649Z,76.60
2018-04-24T06:26:14.858Z,76.00
2018-04-24T06:28:43.351Z,75.90
2018-04-24T06:31:11.999Z,77.40
2018-04-24T06:33:41.222Z,78.20
2018-04-24T06:36:09.818Z,78.20
2018-04-24T06:38:39.142Z,77.70
2018-04-24T06:41:08.446Z,77.10
2018-04-24T06:43:37.560Z,75.50
2018-04-24T06:46:06.395Z,76.30
2018-04-24T06:48:34.836Z,77.10
2018-04-24T06:51:03.267Z,75.80
2018-04-24T06:53:31.698Z,76.40
2018-04-24T06:56:00.900Z,76.20
2018-04-24T06:58:30.123Z,75.30
2018-04-24T07:00:58.546Z,75.30
2018-04-24T07:03:26.975Z,76.70
2018-04-24T07:05:55.406Z,75.20
2018-04-24T07:08:23.853Z,76.20
2018-04-24T07:10:52.285Z,75.90
2018-04-24T07:13:21.480Z,74.90
2018-04-24T07:15:50.677Z,74.80
2018-04-24T07:18:19.867Z,76.40
2018-04-24T07:20:49.075Z,75.10
2018-04-24T07:23:18.272Z,76.10
2018-04-24T07:25:47.478Z,75.10
2018-04-24T07:28:15.900Z,75.10
2018-04-24T07:30:44.370Z,74.30
2018-04-24T07:33:12.811Z,74.50
2018-04-24T07:35:42.090Z,73.80
2018-04-24T07:38:11.339Z,73.40
2018-04-24T07:40:39.822Z,73.40
2018-04-24T07:43:09.023Z,73.60
2018-04-24T07:45:37.509Z,73.30
2018-04-24T07:48:05.615Z,72.00
2018-04-24T07:50:34.808Z,71.70
2018-04-24T07:53:03.236Z,71.70
2018-04-24T07:55:31.668Z,71.50
2018-04-24T07:58:00.877Z,71.10
2018-04-24T08:00:29.317Z,71.10
2018-04-24T08:02:57.742Z,70.50
2018-04-24T08:05:26.946Z,70.00
2018-04-24T08:07:55.385Z,70.00
2018-04-24T08:10:23.829Z,69.20
2018-04-24T08:12:52.268Z,70.30
2018-04-24T08:15:21.481Z,69.20
2018-04-24T08:17:49.912Z,69.20
2018-04-24T08:20:18.341Z,68.90
2018-04-24T08:22:46.829Z,68.50
2018-04-24T08:25:15.409Z,69.30
2018-04-24T08:27:44.033Z,68.20
2018-04-24T08:30:12.236Z,67.90
2018-04-24T08:32:41.437Z,68.70
2018-04-24T08:35:10.847Z,70.30
2018-04-24T08:37:39.309Z,69.30
2018-04-24T08:40:08.595Z,69.10
2018-04-24T08:42:37.186Z,69.10
2018-04-24T08:45:06.459Z,68.30
2018-04-24T08:47:34.922Z,68.30
2018-04-24T08:50:03.348Z,67.60
2018-04-24T08:52:32.567Z,65.50
2018-04-24T08:55:00.996Z,65.50
2018-04-24T08:57:29.443Z,66.30
2018-04-24T08:59:57.865Z,65.70
2018-04-24T09:02:26.289Z,66.30
2018-04-24T09:04:55.414Z,67.00
2018-04-24T09:07:23.861Z,66.00
2018-04-24T09:09:52.290Z,64.50
2018-04-24T09:12:20.731Z,63.30
2018-04-24T09:14:49.158Z,64.70
2018-04-24T09:17:18.136Z,64.40
2018-04-24T09:19:46.554Z,64.50
2018-04-24T09:22:14.994Z,64.10
2018-04-24T09:24:43.463Z,64.10
2018-04-24T09:27:11.978Z,64.30
2018-04-24T09:29:40.304Z,64.40
2018-04-24T09:32:08.725Z,63.70
2018-04-24T09:34:37.572Z,63.70
2018-04-24T09:37:05.996Z,62.60
2018-04-24T09:39:35.196Z,62.30
2018-04-24T09:42:03.644Z,62.40
2018-04-24T09:44:31.871Z,62.90
2018-04-24T09:47:00.493Z,62.20
2018-04-24T09:49:28.999Z,62.30
2018-04-24T09:51:58.324Z,59.80
2018-04-24T09:54:26.803Z,59.80
2018-04-24T09:56:55.294Z,59.90
2018-04-24T09:59:23.898Z,60.00
2018-04-24T10:01:52.358Z,60.90
2018-04-24T10:04:21.721Z,59.90
2018-04-24T10:06:50.689Z,60.60
2018-04-24T10:09:18.885Z,60.60
2018-04-24T10:11:48.109Z,59.20
2018-04-24T10:14:16.552Z,59.20
2018-04-24T10:16:45.754Z,59.60
2018-04-24T10:19:14.966Z,59.90
2018-04-24T10:21:43.399Z,59.80
2018-04-24T10:24:11.842Z,59.90
2018-04-24T10:26:40.268Z,60.00
2018-04-24T10:29:08.712Z,60.00
2018-04-24T10:31:37.275Z,59.80
2018-04-24T10:34:05.712Z,59.80
2018-04-24T10:36:34.138Z,59.80
2018-04-24T10:39:02.608Z,59.50
2018-04-24T10:41:31.019Z,59.50
2018-04-24T10:43:59.444Z,58.80
2018-04-24T10:46:28.659Z,57.90
2018-04-24T10:48:57.080Z,57.90
2018-04-24T10:51:25.582Z,58.10
2018-04-24T10:53:54.895Z,58.30
2018-04-24T10:56:24.096Z,57.90
2018-04-24T10:58:52.956Z,58.20
2018-04-24T11:01:21.434Z,58.20
2018-04-24T11:03:49.862Z,58.30
2018-04-24T11:06:18.306Z,58.70
2018-04-24T11:08:47.505Z,56.90
2018-04-24T11:11:16.716Z,56.30
2018-04-24T11:13:45.911Z,57.10
2018-04-24T12:38:13.175Z,56.50
2018-04-24T12:40:42.575Z,56.40
2018-04-24T12:43:10.997Z,56.30
2018-04-24T12:45:39.822Z,56.80
2018-04-24T12:48:09.782Z,56.70
2018-04-24T12:50:38.228Z,56.60
2018-04-24T12:53:06.660Z,56.60
2018-04-24T12:55:35.105Z,55.30
2018-04-24T12:58:03.534Z,55.30
2018-04-24T13:00:31.974Z,54.90
2018-04-24T13:03:00.416Z,55.00
2018-04-24T13:05:29.622Z,55.30
2018-04-24T13:07:58.114Z,55.30
2018-04-24T13:10:26.529Z,55.80
2018-04-24T13:12:54.971Z,56.00
2018-04-24T13:15:23.190Z,56.10
2018-04-24T13:17:51.613Z,55.20
2018-04-24T13:20:20.037Z,55.20
2018-04-24T13:22:48.471Z,55.90
2018-04-24T13:25:16.909Z,56.00
2018-04-24T13:27:45.077Z,55.90
2018-04-24T13:30:13.511Z,55.30
2018-04-24T13:32:41.952Z,56.60
2018-04-24T13:35:11.141Z,55.80
2018-04-24T13:37:39.608Z,55.80
2018-04-24T13:40:08.189Z,55.50
2018-04-24T13:42:36.726Z,55.80
2018-04-24T13:45:05.154Z,55.50
2018-04-24T13:47:33.618Z,55.00
2018-04-24T13:50:02.064Z,55.20
2018-04-24T13:52:30.489Z,54.40
2018-04-24T13:54:58.938Z,55.10
2018-04-24T13:57:27.404Z,54.70
2018-04-24T13:59:55.847Z,55.40
2018-04-24T14:02:25.053Z,54.40
2018-04-24T14:04:53.501Z,54.40
2018-04-24T14:07:21.970Z,54.30
2018-04-24T14:09:50.424Z,54.40
2018-04-24T14:12:18.903Z,53.30
2018-04-24T14:14:48.253Z,51.90
2018-04-24T14:17:17.466Z,51.20
2018-04-24T14:19:45.905Z,51.10
2018-04-24T14:22:14.334Z,52.50
2018-04-24T14:24:42.790Z,52.60
2018-04-24T14:27:11.983Z,53.40
2018-04-24T14:29:41.183Z,53.60
2018-04-24T14:32:10.377Z,53.10
2018-04-24T14:34:39.586Z,53.40
2018-04-24T14:37:08.578Z,53.40
2018-04-24T14:39:37.791Z,53.40
2018-04-24T14:42:06.205Z,53.00
2018-04-24T14:44:34.639Z,52.70
2018-04-24T14:47:03.236Z,51.90
2018-04-24T14:49:31.656Z,52.30
2018-04-24T14:52:00.097Z,51.90
2018-04-24T14:54:28.530Z,51.60
2018-04-24T14:56:57.786Z,51.40
2018-04-24T14:59:26.218Z,51.40
2018-04-24T15:01:55.421Z,51.30
2018-04-24T15:04:23.852Z,51.30
2018-04-24T15:06:52.295Z,51.70
2018-04-24T15:09:20.722Z,51.80
2018-04-24T15:11:49.161Z,51.90
2018-04-24T15:14:17.591Z,52.30
2018-04-24T15:16:46.806Z,52.70
2018-04-24T15:19:15.248Z,52.70
2018-04-24T15:21:43.674Z,52.40
2018-04-24T15:24:12.115Z,52.40
2018-04-24T15:26:40.590Z,52.60
2018-04-24T15:29:09.957Z,52.70
2018-04-24T15:31:38.985Z,52.20
2018-04-24T15:34:07.422Z,51.00
2018-04-24T15:36:35.860Z,51.10
2018-04-24T15:39:04.182Z,52.00
2018-04-24T15:41:32.615Z,52.00
2018-04-24T15:44:01.814Z,52.30
2018-04-24T15:46:31.023Z,52.10
2018-04-24T15:48:59.443Z,52.10
2018-04-24T15:51:27.884Z,52.50
2018-04-24T15:53:56.312Z,51.80
2018-04-24T15:56:24.739Z,52.10
2018-04-24T15:58:53.159Z,51.80
2018-04-24T16:01:21.597Z,52.60
2018-04-24T16:03:50.029Z,51.40
2018-04-24T16:06:18.482Z,52.30
2018-04-24T16:08:46.908Z,53.20
2018-04-24T16:11:16.311Z,53.30
2018-04-24T16:13:45.697Z,52.90
2018-04-24T16:16:14.407Z,52.90
2018-04-24T16:18:42.857Z,53.10
2018-04-24T16:21:11.271Z,53.30
2018-04-24T16:23:39.730Z,53.40
2018-04-24T16:26:08.923Z,53.30
2018-04-24T16:28:38.362Z,54.10
2018-04-24T16:31:06.729Z,54.10
2018-04-24T16:33:35.158Z,54.20
2018-04-24T16:36:03.602Z,54.30
2018-04-24T16:38:32.041Z,54.50
2018-04-24T16:41:01.247Z,54.20
2018-04-24T16:43:30.297Z,54.10
2018-04-24T16:45:58.489Z,55.50
2018-04-24T16:48:26.946Z,55.10
2018-04-24T16:50:55.372Z,54.80
2018-04-24T16:53:24.568Z,54.40
2018-04-24T16:55:53.771Z,54.70
2018-04-24T16:58:22.206Z,54.70
2018-04-24T17:00:50.730Z,54.90
2018-04-24T17:03:19.269Z,55.20
2018-04-24T17:05:47.690Z,54.60
2018-04-24T17:08:16.107Z,54.90
2018-04-24T17:10:44.536Z,55.20
2018-04-24T17:13:13.729Z,55.60
2018-04-24T17:15:42.940Z,56.30
2018-04-24T17:18:11.381Z,56.30
2018-04-24T17:20:39.808Z,56.60
2018-04-24T17:23:09.120Z,56.60
2018-04-24T17:25:37.615Z,56.90
2018-04-24T17:28:07.513Z,57.20
2018-04-24T17:30:35.940Z,57.20
2018-04-24T17:33:05.150Z,57.50
2018-04-24T17:35:34.348Z,58.00
2018-04-24T17:38:03.216Z,58.50
2018-04-24T17:40:31.955Z,58.60
2018-04-24T17:43:00.441Z,58.70
2018-04-24T17:45:28.869Z,58.80
2018-04-24T17:47:58.082Z,58.50
2018-04-24T17:50:27.269Z,58.90
2018-04-24T17:52:56.484Z,59.30
2018-04-24T17:55:24.914Z,59.30
2018-04-24T17:57:53.341Z,59.30
2018-04-24T18:00:21.793Z,59.70
2018-04-24T18:02:51.239Z,60.50
2018-04-24T18:05:19.703Z,60.50
2018-04-24T18:07:48.160Z,60.20
2018-04-24T18:10:17.365Z,61.10
2018-04-24T18:12:46.570Z,61.10
2018-04-24T18:15:15.005Z,61.10
2018-04-24T18:17:43.440Z,61.20
2018-04-24T18:20:11.905Z,62.00
2018-04-24T18:22:41.099Z,62.80
2018-04-24T18:25:09.669Z,62.80
2018-04-24T18:27:39.843Z,64.40
2018-04-24T18:30:09.166Z,63.70
2018-04-24T18:32:37.640Z,63.70
2018-04-24T18:35:06.105Z,63.50
2018-04-24T18:37:34.972Z,63.50
2018-04-24T18:40:03.394Z,63.90
2018-04-24T18:42:31.832Z,64.70
2018-04-24T18:45:00.534Z,65.00
2018-04-24T18:47:29.786Z,65.30
2018-04-24T18:49:58.617Z,65.30
2018-04-24T18:52:27.855Z,65.30
2018-04-24T18:54:56.822Z,65.00
2018-04-24T18:57:25.266Z,64.90
2018-04-24T18:59:53.709Z,65.10
2018-04-24T19:02:23.146Z,64.90
2018-04-24T19:04:51.648Z,64.90
2018-04-24T19:07:20.278Z,64.50
2018-04-24T19:09:49.465Z,64.20
2018-04-24T19:12:18.668Z,64.30
2018-04-24T19:14:47.869Z,64.20
2018-04-24T19:17:17.071Z,64.40
2018-04-24T19:19:45.497Z,64.40
2018-04-24T19:22:13.923Z,64.60
2018-04-24T19:24:48.614Z,64.60
2018-04-24T19:27:17.058Z,64.60
2018-04-24T19:29:45.492Z,65.00
2018-04-24T19:32:20.222Z,65.30
2018-04-24T19:34:49.773Z,65.10
2018-04-24T19:37:18.261Z,65.20
2018-04-24T19:39:52.237Z,65.40
2018-04-24T19:42:21.533Z,65.50
2018-04-24T19:44:49.967Z,65.50
2018-04-24T19:47:18.395Z,65.90
2018-04-24T19:49:52.234Z,66.30
2018-04-24T19:52:20.651Z,66.90
2018-04-24T19:54:55.252Z,66.60
2018-04-24T19:57:23.673Z,66.60
2018-04-24T19:59:52.086Z,66.40
2018-04-24T20:02:20.852Z,66.10
2018-04-24T20:04:49.346Z,66.00
2018-04-24T20:07:17.769Z,66.10
2018-04-24T20:09:46.969Z,65.90
2018-04-24T20:12:16.424Z,66.60
2018-04-24T20:14:45.689Z,67.10
2018-04-24T20:17:14.297Z,67.20
2018-04-24T20:19:43.439Z,67.30
2018-04-24T20:22:11.926Z,67.00
2018-04-24T20:24:41.145Z,66.20
2018-04-24T20:27:10.049Z,66.20
2018-04-24T20:29:38.467Z,66.40
2018-04-24T20:32:06.968Z,66.90
2018-04-24T20:34:35.605Z,67.10
2018-04-24T20:37:04.080Z,67.70
2018-04-24T20:39:33.280Z,68.60
2018-04-24T20:42:02.484Z,67.40
2018-04-24T20:44:30.923Z,67.40
2018-04-24T20:46:59.595Z,67.10
2018-04-24T20:49:28.830Z,67.50
2018-04-24T20:51:57.798Z,67.60
2018-04-24T20:54:26.013Z,67.50
2018-04-24T20:56:54.682Z,67.70
2018-04-24T20:59:23.157Z,67.30
2018-04-24T21:01:51.334Z,66.70
2018-04-24T21:04:20.520Z,67.10
2018-04-24T21:06:49.730Z,67.60
2018-04-24T21:09:18.945Z,67.50
2018-04-24T21:11:47.387Z,67.40
2018-04-24T21:14:15.820Z,67.30
2018-04-24T21:16:44.028Z,67.30
2018-04-24T21:19:12.448Z,67.20
2018-04-24T21:21:40.892Z,67.20
2018-04-24T21:24:09.321Z,67.60
2018-04-24T21:26:39.012Z,67.60
2018-04-24T21:29:07.708Z,67.40
2018-04-24T21:31:36.153Z,67.60
2018-04-24T21:34:05.363Z,68.40
2018-04-24T21:36:33.792Z,68.40
2018-04-24T21:39:02.218Z,68.80
2018-04-24T21:41:31.438Z,68.30
2018-04-24T21:43:59.861Z,68.30
2018-04-24T21:46:28.281Z,68.80
2018-04-24T21:48:56.717Z,68.70
2018-04-24T21:51:25.148Z,68.20
2018-04-24T21:53:53.593Z,68.80
2018-04-24T21:56:22.807Z,68.40
2018-04-24T21:58:52.014Z,69.20
2018-04-24T22:01:20.453Z,69.20
2018-04-24T22:03:48.864Z,69.00
2018-04-24T22:06:17.310Z,68.70
2018-04-24T22:08:45.735Z,69.80
2018-04-24T22:11:14.190Z,70.10
2018-04-24T22:13:43.380Z,70.50
2018-04-24T22:16:12.555Z,69.90
2018-04-24T22:18:40.997Z,69.80
2018-04-24T22:21:10.352Z,70.00
2018-04-24T22:23:39.748Z,69.60
2018-04-24T22:26:08.192Z,69.30
2018-04-24T22:28:36.624Z,69.10
2018-04-24T22:31:06.428Z,69.40
2018-04-24T22:33:35.649Z,69.90
2018-04-24T22:36:05.040Z,70.00
2018-04-24T22:38:33.454Z,70.00
2018-04-24T22:41:02.733Z,71.30
2018-04-24T22:43:31.150Z,70.40
2018-04-24T22:45:59.600Z,70.60
2018-04-24T22:48:28.015Z,70.60
2018-04-24T22:50:56.428Z,69.80
2018-04-24T22:53:24.861Z,69.70
2018-04-24T22:55:53.089Z,69.40
2018-04-24T22:58:21.545Z,69.30
2018-04-24T23:00:50.736Z,69.30
2018-04-24T23:03:19.915Z,68.90
2018-04-24T23:05:48.359Z,69.50
2018-04-24T23:08:16.790Z,68.80
2018-04-24T23:10:57.191Z,69.10
2018-04-24T23:13:37.032Z,69.10
2018-04-24T23:16:16.666Z,68.90
2018-04-24T23:18:56.432Z,68.40
2018-04-24T23:21:23.701Z,68.30
2018-04-24T23:23:52.145Z,68.30
2018-04-24T23:26:20.233Z,67.80
2018-04-24T23:28:48.651Z,68.20
2018-04-24T23:31:16.426Z,68.60
2018-04-24T23:33:45.618Z,68.20
2018-04-24T23:36:14.824Z,68.00
2018-04-24T23:38:44.017Z,67.90
2018-04-24T23:41:12.884Z,67.70
2018-04-24T23:43:41.336Z,67.70
2018-04-24T23:46:09.809Z,68.10
2018-04-24T23:48:38.221Z,67.70
2018-04-24T23:51:06.659Z,68.40
2018-04-24T23:53:35.097Z,68.40
2018-04-24T23:56:03.960Z,68.70
2018-04-24T23:58:32.400Z,68.70
